Time;durP1;ratioP1;P1;durP2;ratioP2;P2;SDS_P1;SDS_P2;PMS_P1;PMS_P2;Temp;Humidity;BMP_temperature;BMP_pressure;BME280_temperature;BME280_humidity;BME280_pressure;Samples;Min_cycle;Max_cycle;Signal;HPM_P1;HPM_P2
2023/05/29 00:00:07;;;;;;;14.25;1.92;;;9.20;99.90;;;;;;5052805;28;20059;-80
2023/05/29 00:02:36;;;;;;;11.75;1.92;;;9.20;99.90;;;;;;5067435;28;20067;-80
2023/05/29 00:05:03;;;;;;;9.52;1.98;;;9.30;99.90;;;;;;5035485;28;20128;-80
2023/05/29 00:07:35;;;;;;;12.82;1.42;;;9.20;99.90;;;;;;5050623;28;20079;-80
2023/05/29 00:10:01;;;;;;;4.20;0.90;;;9.40;99.90;;;;;;5051003;28;20052;-80
2023/05/29 00:12:26;;;;;;;7.40;1.52;;;9.20;99.90;;;;;;5051533;28;20369;-80
2023/05/29 00:14:52;;;;;;;9.35;1.60;;;9.20;99.90;;;;;;5066880;28;20510;-80
2023/05/29 00:17:18;;;;;;;12.02;1.20;;;9.40;99.90;;;;;;5052458;28;20087;-80
2023/05/29 00:19:43;;;;;;;8.68;1.23;;;9.10;99.90;;;;;;5033140;28;20051;-80
2023/05/29 00:22:10;;;;;;;11.93;1.40;;;9.10;99.90;;;;;;5051757;28;20306;-80
2023/05/29 00:24:35;;;;;;;12.00;1.75;;;9.10;99.90;;;;;;5050601;28;20044;-80
2023/05/29 00:27:01;;;;;;;10.98;1.27;;;9.70;99.90;;;;;;5050816;28;20055;-80
2023/05/29 00:29:27;;;;;;;5.18;1.10;;;9.10;99.90;;;;;;5051245;28;20040;-80
2023/05/29 00:31:53;;;;;;;7.90;1.35;;;9.10;99.90;;;;;;5066509;28;20120;-80
2023/05/29 00:34:26;;;;;;;8.40;1.48;;;9.00;99.90;;;;;;5068722;28;20134;-80
2023/05/29 00:36:52;;;;;;;11.32;1.67;;;9.80;99.90;;;;;;5049229;28;20526;-80
2023/05/29 00:39:17;;;;;;;8.65;1.30;;;9.00;99.90;;;;;;5051901;28;20083;-81
2023/05/29 00:41:43;;;;;;;11.05;1.20;;;9.00;99.90;;;;;;5066482;28;20043;-80
2023/05/29 00:44:10;;;;;;;11.30;1.17;;;9.00;99.90;;;;;;5067312;28;20453;-80
2023/05/29 00:46:36;;;;;;;5.95;1.20;;;9.00;99.90;;;;;;5067259;28;20052;-80
2023/05/29 00:49:03;;;;;;;11.40;1.52;;;9.00;99.90;;;;;;5049381;28;20056;-80
2023/05/29 00:51:31;;;;;;;13.80;1.73;;;9.00;99.90;;;;;;5035037;28;20044;-80
2023/05/29 00:53:58;;;;;;;8.27;1.30;;;8.90;99.90;;;;;;5049127;28;20047;-80
2023/05/29 00:56:24;;;;;;;6.70;1.30;;;9.40;99.90;;;;;;5067418;28;20152;-81
2023/05/29 00:58:51;;;;;;;6.45;1.02;;;10.10;99.90;;;;;;5032851;28;20102;-81
2023/05/29 01:01:21;;;;;;;7.47;1.08;;;9.40;99.90;;;;;;5032278;28;20055;-80
2023/05/29 01:03:48;;;;;;;17.02;2.25;;;8.90;99.90;;;;;;5050911;28;20063;-80
2023/05/29 01:06:15;;;;;;;8.20;1.23;;;9.40;99.90;;;;;;5048987;28;20499;-80
2023/05/29 01:08:40;;;;;;;16.48;1.88;;;9.10;99.90;;;;;;5051659;28;20048;-80
2023/05/29 01:11:31;;;;;;;13.55;1.80;;;8.90;99.90;;;;;;5015637;28;20036;-81
2023/05/29 01:14:03;;;;;;;16.40;1.35;;;8.90;99.90;;;;;;5050346;28;20048;-80
2023/05/29 01:16:48;;;;;;;8.73;1.77;;;8.90;99.90;;;;;;5066568;28;20492;-80
2023/05/29 01:19:43;;;;;;;12.27;1.35;;;10.20;99.90;;;;;;5065131;28;20193;-80
2023/05/29 01:22:53;;;;;;;11.00;1.20;;;8.90;99.90;;;;;;5029384;28;20192;-80
2023/05/29 01:25:29;;;;;;;11.48;1.45;;;9.00;99.90;;;;;;5049879;28;20838;-80
2023/05/29 01:27:57;;;;;;;6.97;1.27;;;9.70;99.90;;;;;;5064878;28;20067;-80
2023/05/29 01:30:24;;;;;;;16.05;1.58;;;9.10;99.90;;;;;;5067680;28;20150;-80
2023/05/29 01:32:51;;;;;;;13.48;1.40;;;9.80;99.90;;;;;;5048902;28;20491;-80
2023/05/29 01:35:17;;;;;;;10.00;1.38;;;9.60;99.90;;;;;;5066638;28;20513;-81
2023/05/29 01:37:43;;;;;;;15.80;1.60;;;9.10;99.90;;;;;;5049463;28;20040;-80
2023/05/29 01:40:12;;;;;;;13.73;1.80;;;9.10;99.90;;;;;;5065848;28;20043;-80
2023/05/29 01:42:39;;;;;;;8.57;1.42;;;9.10;99.90;;;;;;5051289;28;20036;-80
2023/05/29 01:45:06;;;;;;;13.38;1.98;;;9.10;99.90;;;;;;5065164;28;20457;-80
2023/05/29 01:47:33;;;;;;;6.95;2.03;;;9.00;99.90;;;;;;5051387;28;20369;-80
2023/05/29 01:50:00;;;;;;;10.65;1.90;;;9.10;99.90;;;;;;5048673;28;20518;-80
2023/05/29 01:52:25;;;;;;;6.97;1.50;;;9.00;99.90;;;;;;5066163;28;20048;-80
2023/05/29 01:54:51;;;;;;;12.93;1.83;;;9.00;99.90;;;;;;5049059;28;20139;-80
2023/05/29 01:57:17;;;;;;;9.93;1.20;;;10.00;99.90;;;;;;5065872;28;20056;-80
2023/05/29 01:59:43;;;;;;;10.88;1.30;;;9.00;99.90;;;;;;5034431;28;20043;-80
2023/05/29 02:02:11;;;;;;;9.23;1.00;;;9.00;99.90;;;;;;5031907;28;20089;-79
2023/05/29 02:04:38;;;;;;;12.98;1.80;;;9.00;99.90;;;;;;5034836;28;20127;-79
2023/05/29 02:07:04;;;;;;;5.65;1.20;;;9.00;99.90;;;;;;5065283;28;20091;-79
2023/05/29 02:09:30;;;;;;;10.90;1.35;;;8.90;99.90;;;;;;5066322;28;20044;-79
2023/05/29 02:11:56;;;;;;;4.13;1.15;;;9.00;99.90;;;;;;5065442;28;20067;-79
2023/05/29 02:14:24;;;;;;;22.30;1.90;;;8.90;99.90;;;;;;5048428;28;20468;-79
2023/05/29 02:16:51;;;;;;;12.45;2.13;;;8.90;99.90;;;;;;5049806;28;20090;-79
2023/05/29 02:19:18;;;;;;;15.35;1.48;;;9.70;99.90;;;;;;5047839;28;20047;-79
2023/05/29 02:21:44;;;;;;;10.32;1.42;;;10.20;99.90;;;;;;5050468;28;20044;-79
2023/05/29 02:24:10;;;;;;;16.95;1.42;;;9.60;99.90;;;;;;5048521;28;20051;-79
2023/05/29 02:26:38;;;;;;;9.05;1.48;;;10.00;99.90;;;;;;5049706;28;20048;-79
2023/05/29 02:29:07;;;;;;;15.48;2.10;;;10.40;99.90;;;;;;5032194;28;20082;-80
2023/05/29 02:31:33;;;;;;;13.00;1.48;;;9.00;99.90;;;;;;5064756;28;20122;-79
2023/05/29 02:33:58;;;;;;;10.95;1.55;;;9.00;99.90;;;;;;5033133;28;20040;-79
2023/05/29 02:36:24;;;;;;;15.43;1.55;;;9.40;99.90;;;;;;5063922;28;20048;-79
2023/05/29 02:38:50;;;;;;;14.40;1.45;;;9.00;99.90;;;;;;5050358;28;20043;-79
2023/05/29 02:41:15;;;;;;;11.05;1.33;;;10.10;99.90;;;;;;5064890;28;20438;-79
2023/05/29 02:43:41;;;;;;;15.77;1.48;;;9.00;99.90;;;;;;5049024;28;20036;-79
2023/05/29 02:46:07;;;;;;;6.80;1.20;;;10.40;99.90;;;;;;5032396;28;20120;-79
2023/05/29 02:48:33;;;;;;;6.03;1.30;;;9.00;99.90;;;;;;5048227;28;20519;-79
2023/05/29 02:50:58;;;;;;;6.60;0.90;;;9.00;99.90;;;;;;5049204;28;20036;-79
2023/05/29 02:53:24;;;;;;;7.55;1.27;;;9.70;99.90;;;;;;5047504;28;20075;-79
2023/05/29 02:55:51;;;;;;;7.90;1.45;;;9.10;99.90;;;;;;5066292;28;20052;-79
2023/05/29 02:58:16;;;;;;;12.98;1.63;;;10.40;99.90;;;;;;5047516;28;20052;-79
2023/05/29 03:00:43;;;;;;;7.72;1.30;;;9.80;99.90;;;;;;5049703;28;20054;-78
2023/05/29 03:03:09;;;;;;;11.20;1.58;;;9.00;99.90;;;;;;5032312;28;20113;-79
2023/05/29 03:05:35;;;;;;;12.52;1.20;;;9.30;99.90;;;;;;5049016;28;20059;-79
2023/05/29 03:08:00;;;;;;;9.32;2.20;;;9.30;99.90;;;;;;5066148;28;20044;-79
2023/05/29 03:10:26;;;;;;;6.47;0.85;;;9.30;99.90;;;;;;5047507;28;20082;-79
2023/05/29 03:12:52;;;;;;;12.70;1.10;;;9.30;99.90;;;;;;5049891;28;20040;-79
2023/05/29 03:15:19;;;;;;;8.98;1.00;;;9.60;99.90;;;;;;5030856;28;20040;-79
2023/05/29 03:17:48;;;;;;;11.93;1.50;;;9.30;99.90;;;;;;5032801;28;20044;-80
2023/05/29 03:20:15;;;;;;;4.90;0.93;;;9.30;99.90;;;;;;5048526;28;20260;-79
2023/05/29 03:22:41;;;;;;;4.80;1.20;;;9.40;99.90;;;;;;5048242;28;20044;-79
2023/05/29 03:25:08;;;;;;;8.85;1.02;;;9.40;99.90;;;;;;5066952;28;20048;-79
2023/05/29 03:27:34;;;;;;;8.63;1.00;;;9.40;99.90;;;;;;5052132;28;20144;-79
2023/05/29 03:30:00;;;;;;;5.78;1.05;;;10.70;99.90;;;;;;5053622;28;20040;-79
2023/05/29 03:32:26;;;;;;;8.55;1.25;;;9.50;99.90;;;;;;5067980;28;20044;-79
2023/05/29 03:34:51;;;;;;;10.07;1.60;;;9.60;99.90;;;;;;5036799;28;20475;-79
2023/05/29 03:37:17;;;;;;;12.05;1.05;;;10.10;99.90;;;;;;5068165;28;20040;-79
2023/05/29 03:39:43;;;;;;;7.20;1.70;;;10.50;99.90;;;;;;5035449;28;20052;-79
2023/05/29 03:42:08;;;;;;;8.15;1.40;;;9.70;99.90;;;;;;5035668;28;20036;-79
2023/05/29 03:44:34;;;;;;;6.53;1.15;;;9.70;99.90;;;;;;5067989;28;20123;-79
2023/05/29 03:47:00;;;;;;;11.35;1.45;;;10.50;99.90;;;;;;5089534;28;20055;-79
2023/05/29 03:49:25;;;;;;;7.85;1.48;;;10.60;99.90;;;;;;5019431;28;20127;-80
2023/05/29 03:51:51;;;;;;;5.05;1.00;;;10.40;99.90;;;;;;5070290;28;20044;-79
2023/05/29 03:54:17;;;;;;;11.20;1.73;;;9.80;99.90;;;;;;5051552;28;20111;-79
2023/05/29 03:56:43;;;;;;;6.72;0.90;;;7.80;99.90;;;;;;5068053;28;20056;-79
2023/05/29 03:59:08;;;;;;;9.38;1.67;;;10.00;99.90;;;;;;5068351;28;20047;-79
2023/05/29 04:01:34;;;;;;;13.30;1.80;;;9.90;99.90;;;;;;5051526;28;20036;-78
2023/05/29 04:04:00;;;;;;;6.97;0.90;;;9.90;99.90;;;;;;5053367;28;20036;-79
2023/05/29 04:06:26;;;;;;;8.20;1.30;;;10.00;99.90;;;;;;5066594;28;20130;-78
2023/05/29 04:08:52;;;;;;;10.35;1.40;;;10.00;99.90;;;;;;5069639;28;20091;-79
2023/05/29 04:11:20;;;;;;;10.73;1.92;;;10.00;99.90;;;;;;5034254;28;20129;-79
2023/05/29 04:13:47;;;;;;;5.30;1.38;;;10.60;99.90;;;;;;5051579;28;20044;-78
2023/05/29 04:16:13;;;;;;;13.40;1.35;;;10.10;99.90;;;;;;5051595;28;20052;-78
2023/05/29 04:18:39;;;;;;;13.60;1.60;;;10.10;99.90;;;;;;5050525;28;20053;-79
2023/05/29 04:21:05;;;;;;;6.70;0.65;;;10.20;99.90;;;;;;5052337;28;20040;-79
2023/05/29 04:23:31;;;;;;;9.63;1.17;;;10.20;99.90;;;;;;5050064;28;20121;-79
2023/05/29 04:25:57;;;;;;;6.63;1.45;;;10.20;99.90;;;;;;5069355;28;20499;-79
2023/05/29 04:28:23;;;;;;;9.75;1.73;;;11.30;99.90;;;;;;5067347;28;20559;-79
2023/05/29 04:30:49;;;;;;;9.73;2.28;;;10.20;99.90;;;;;;5067802;28;20051;-79
2023/05/29 04:33:17;;;;;;;10.50;1.30;;;10.20;99.90;;;;;;5050567;28;20048;-79
2023/05/29 04:35:42;;;;;;;7.32;1.20;;;10.20;99.90;;;;;;5050710;28;20222;-79
2023/05/29 04:38:09;;;;;;;8.00;1.52;;;11.50;99.90;;;;;;5051797;28;20044;-79
2023/05/29 04:40:36;;;;;;;13.40;1.85;;;10.20;99.90;;;;;;5049478;28;20129;-79
2023/05/29 04:43:05;;;;;;;7.55;1.05;;;10.20;99.90;;;;;;5068938;28;20073;-79
2023/05/29 04:45:30;;;;;;;6.18;1.02;;;10.10;99.90;;;;;;5066322;28;20054;-79
2023/05/29 04:47:56;;;;;;;10.95;1.35;;;10.20;99.90;;;;;;5067761;28;20052;-79
2023/05/29 04:50:23;;;;;;;8.77;1.98;;;10.30;99.90;;;;;;5050372;28;20044;-79
2023/05/29 04:52:48;;;;;;;10.07;1.33;;;10.30;99.90;;;;;;5033583;28;20048;-79
2023/05/29 04:55:14;;;;;;;7.72;1.23;;;10.40;99.90;;;;;;5050058;28;20385;-79
2023/05/29 04:57:40;;;;;;;5.28;0.77;;;10.40;99.90;;;;;;5049536;28;20056;-79
2023/05/29 05:00:14;;;;;;;8.40;1.80;;;10.40;99.90;;;;;;5052082;28;20044;-79
2023/05/29 05:02:45;;;;;;;;;;;10.50;99.90;;;;;;5050454;28;20130;-79
2023/05/29 05:05:11;;;;;;;9.15;1.40;;;10.50;99.90;;;;;;5067239;28;19974;-80
2023/05/29 05:07:37;;;;;;;13.38;1.50;;;10.50;99.90;;;;;;5050453;28;20051;-80
2023/05/29 05:10:04;;;;;;;9.15;1.58;;;10.60;99.90;;;;;;5049243;28;20192;-80
2023/05/29 05:12:30;;;;;;;8.90;1.75;;;10.60;99.90;;;;;;5051077;28;20218;-81
2023/05/29 05:14:55;;;;;;;12.35;1.50;;;11.20;99.90;;;;;;5048954;28;20186;-81
2023/05/29 05:17:21;;;;;;;15.48;2.33;;;10.70;99.90;;;;;;5068361;28;20349;-80
2023/05/29 05:19:49;;;;;;;9.77;1.45;;;10.90;99.90;;;;;;5048612;28;20161;-81
2023/05/29 05:22:15;;;;;;;7.82;1.35;;;11.00;99.90;;;;;;5050775;28;20379;-81
2023/05/29 05:24:40;;;;;;;13.23;1.58;;;11.10;99.90;;;;;;5049618;28;20042;-81
2023/05/29 05:27:06;;;;;;;7.45;1.15;;;11.30;99.90;;;;;;5065568;28;20060;-81
2023/05/29 05:29:32;;;;;;;7.57;1.63;;;11.40;99.90;;;;;;5050764;28;20078;-82
2023/05/29 05:31:58;;;;;;;15.55;1.80;;;11.60;99.90;;;;;;5048557;28;20063;-80
2023/05/29 05:34:24;;;;;;;10.52;1.67;;;13.20;99.90;;;;;;5086296;28;20040;-80
2023/05/29 05:36:49;;;;;;;5.63;1.40;;;11.80;99.90;;;;;;5083116;28;20040;-80
2023/05/29 05:39:15;;;;;;;8.88;2.40;;;11.90;99.90;;;;;;5085283;28;20738;-80
2023/05/29 05:41:41;;;;;;;6.63;1.52;;;12.00;99.90;;;;;;5084488;28;20068;-80
2023/05/29 05:44:07;;;;;;;9.73;2.10;;;12.10;99.90;;;;;;5049720;28;20040;-80
2023/05/29 05:46:32;;;;;;;8.88;1.98;;;12.20;99.90;;;;;;5085108;28;20052;-80
2023/05/29 05:48:58;;;;;;;9.90;1.50;;;12.20;99.90;;;;;;5047381;28;20048;-80
2023/05/29 05:51:24;;;;;;;9.10;2.00;;;12.40;99.90;;;;;;5067757;28;20044;-80
2023/05/29 05:53:50;;;;;;;14.13;2.00;;;12.40;99.90;;;;;;5048371;28;20051;-80
2023/05/29 05:56:16;;;;;;;14.57;2.05;;;12.40;99.90;;;;;;5049995;28;20044;-81
2023/05/29 05:58:42;;;;;;;8.18;1.58;;;12.40;99.90;;;;;;5032615;28;20086;-79
2023/05/29 06:01:08;;;;;;;10.82;2.10;;;12.50;99.90;;;;;;5065284;28;20044;-79
2023/05/29 06:03:37;;;;;;;12.00;2.08;;;12.50;99.90;;;;;;5065943;28;20047;-79
2023/05/29 06:06:03;;;;;;;11.30;1.77;;;12.50;99.90;;;;;;5047498;28;20040;-79
2023/05/29 06:08:30;;;;;;;11.02;2.13;;;12.10;99.90;;;;;;5050874;28;20047;-79
2023/05/29 06:10:56;;;;;;;6.90;1.42;;;12.50;99.90;;;;;;5064014;28;20036;-79
2023/05/29 06:13:22;;;;;;;12.77;1.60;;;12.60;99.90;;;;;;5066655;28;20153;-80
2023/05/29 06:15:47;;;;;;;12.82;1.80;;;12.70;99.90;;;;;;5064846;28;20120;-80
2023/05/29 06:18:13;;;;;;;14.13;2.15;;;12.80;99.90;;;;;;5048566;28;20126;-79
2023/05/29 06:20:39;;;;;;;11.60;2.00;;;12.80;99.90;;;;;;5066577;28;20090;-79
2023/05/29 06:23:05;;;;;;;15.70;2.20;;;12.90;99.90;;;;;;5048037;28;20055;-79
2023/05/29 06:25:34;;;;;;;9.52;1.45;;;12.90;99.90;;;;;;5067284;28;20491;-80
2023/05/29 06:28:00;;;;;;;11.80;1.75;;;12.80;99.90;;;;;;5063920;28;20044;-79
2023/05/29 06:30:26;;;;;;;22.20;3.58;;;12.70;99.90;;;;;;5066408;28;20449;-80
2023/05/29 06:32:57;;;;;;;15.25;2.88;;;12.70;99.90;;;;;;5048677;28;20385;-80
2023/05/29 06:35:23;;;;;;;17.77;2.20;;;12.70;99.90;;;;;;5031945;28;20510;-79
2023/05/29 06:37:48;;;;;;;12.60;2.05;;;12.80;99.90;;;;;;5032748;28;20044;-79
2023/05/29 06:40:17;;;;;;;14.65;1.75;;;12.80;99.90;;;;;;5047774;28;20048;-79
2023/05/29 06:42:46;;;;;;;13.65;2.10;;;12.80;99.90;;;;;;5067360;28;20138;-78
2023/05/29 06:45:13;;;;;;;6.78;1.30;;;12.90;99.90;;;;;;5047313;28;20044;-79
2023/05/29 06:47:40;;;;;;;13.10;1.88;;;13.00;99.90;;;;;;5033611;28;20557;-79
2023/05/29 06:50:07;;;;;;;6.97;1.40;;;13.00;99.90;;;;;;5083199;28;20515;-82
2023/05/29 06:52:32;;;;;;;13.85;2.20;;;13.00;99.90;;;;;;5031569;28;20105;-81
2023/05/29 06:54:58;;;;;;;8.98;1.73;;;12.90;99.90;;;;;;5065809;28;20044;-81
2023/05/29 06:57:24;;;;;;;13.50;2.08;;;12.90;99.90;;;;;;5082327;28;20048;-79
2023/05/29 06:59:50;;;;;;;13.20;2.28;;;13.00;99.90;;;;;;5067726;28;20399;-81
2023/05/29 07:02:15;;;;;;;7.82;1.90;;;13.00;99.90;;;;;;5019018;28;20406;-81
2023/05/29 07:04:41;;;;;;;12.50;1.75;;;12.90;99.90;;;;;;5020629;28;20032;-80
2023/05/29 07:07:07;;;;;;;12.55;1.85;;;12.90;99.90;;;;;;5051896;28;20122;-81
2023/05/29 07:09:32;;;;;;;11.82;2.00;;;12.90;99.90;;;;;;5019854;28;20047;-79
2023/05/29 07:11:58;;;;;;;10.73;1.63;;;12.90;99.90;;;;;;5087673;28;20495;-79
2023/05/29 07:14:24;;;;;;;15.73;1.88;;;12.80;99.90;;;;;;5068147;28;20084;-80
2023/05/29 07:16:50;;;;;;;9.50;1.55;;;12.90;99.90;;;;;;5088515;28;20036;-78
2023/05/29 07:19:16;;;;;;;10.05;1.48;;;12.90;99.90;;;;;;5067585;28;20040;-80
2023/05/29 07:21:42;;;;;;;7.57;1.77;;;13.00;99.90;;;;;;5070041;28;20047;-79
2023/05/29 07:24:08;;;;;;;9.73;1.98;;;13.20;99.90;;;;;;5051049;28;20051;-80
2023/05/29 07:26:33;;;;;;;21.95;2.67;;;13.30;99.90;;;;;;5052154;28;20052;-80
2023/05/29 07:28:59;;;;;;;14.07;2.17;;;13.40;99.90;;;;;;5052313;28;20158;-79
2023/05/29 07:31:25;;;;;;;11.10;2.40;;;13.50;99.90;;;;;;5017943;28;20036;-80
2023/05/29 07:33:51;;;;;;;13.65;1.83;;;13.50;99.90;;;;;;5069396;28;20040;-80
2023/05/29 07:36:17;;;;;;;10.10;1.77;;;13.50;99.90;;;;;;5034399;28;20036;-80
2023/05/29 07:38:43;;;;;;;8.77;1.80;;;13.60;99.90;;;;;;5070293;28;20075;-82
2023/05/29 07:41:09;;;;;;;13.88;2.15;;;13.70;99.90;;;;;;5051271;28;20663;-84
2023/05/29 07:43:35;;;;;;;15.75;3.55;;;13.70;99.90;;;;;;5036336;28;20086;-79
2023/05/29 07:46:01;;;;;;;11.20;2.03;;;13.90;99.90;;;;;;5069242;28;20043;-79
2023/05/29 07:48:27;;;;;;;6.97;1.90;;;14.10;99.90;;;;;;5068379;28;20066;-79
2023/05/29 07:50:52;;;;;;;17.92;2.03;;;14.30;99.90;;;;;;5036863;28;20054;-79
2023/05/29 07:53:18;;;;;;;10.85;2.03;;;14.50;99.90;;;;;;5067205;28;20491;-79
2023/05/29 07:55:44;;;;;;;12.23;1.52;;;14.50;99.90;;;;;;5069664;28;20094;-79
2023/05/29 07:58:11;;;;;;;9.57;2.08;;;14.50;99.90;;;;;;5067158;28;20041;-79
2023/05/29 08:00:38;;;;;;;11.07;1.95;;;14.40;99.90;;;;;;5052857;28;20055;-79
2023/05/29 08:03:04;;;;;;;5.70;1.58;;;14.40;99.90;;;;;;5052174;28;20395;-79
2023/05/29 08:05:33;;;;;;;8.60;1.80;;;14.30;99.90;;;;;;5068408;28;20042;-79
2023/05/29 08:07:59;;;;;;;10.23;2.47;;;14.40;99.90;;;;;;5068279;28;20040;-79
2023/05/29 08:10:25;;;;;;;7.45;1.77;;;14.30;99.90;;;;;;5032763;28;20131;-80
2023/05/29 08:12:51;;;;;;;10.65;2.10;;;14.30;99.90;;;;;;5052768;28;20047;-80
2023/05/29 08:15:24;;;;;;;9.07;1.75;;;14.30;99.90;;;;;;5050183;28;20101;-79
2023/05/29 08:17:52;;;;;;;12.20;1.98;;;14.30;99.90;;;;;;5053762;28;20522;-79
2023/05/29 08:20:18;;;;;;;16.73;2.08;;;14.30;99.90;;;;;;5067438;28;20076;-79
2023/05/29 08:22:44;;;;;;;10.77;2.10;;;14.20;99.90;;;;;;5051077;28;20499;-79
2023/05/29 08:25:10;;;;;;;9.55;1.73;;;14.10;99.90;;;;;;5068668;28;20044;-79
2023/05/29 08:27:36;;;;;;;11.93;2.15;;;14.20;99.90;;;;;;5066906;28;20156;-79
2023/05/29 08:30:02;;;;;;;15.38;2.08;;;14.20;99.90;;;;;;5069666;28;20130;-79
2023/05/29 08:32:28;;;;;;;9.40;1.83;;;14.20;99.90;;;;;;5017683;28;20046;-79
2023/05/29 08:34:53;;;;;;;11.13;1.50;;;14.20;99.90;;;;;;5052070;28;20044;-77
2023/05/29 08:37:19;;;;;;;10.52;2.08;;;14.30;99.90;;;;;;5067305;28;20044;-78
2023/05/29 08:39:45;;;;;;;16.65;2.10;;;14.60;99.90;;;;;;5017653;28;20036;-78
2023/05/29 08:42:17;;;;;;;13.55;1.63;;;14.20;99.90;;;;;;5050666;28;20095;-78
2023/05/29 08:44:48;;;;;;;10.52;1.83;;;14.20;99.90;;;;;;5050494;28;20040;-78
2023/05/29 08:47:20;;;;;;;10.85;1.65;;;14.20;99.90;;;;;;5069102;28;20126;-78
2023/05/29 08:49:51;;;;;;;12.73;2.22;;;14.30;99.90;;;;;;5050035;28;20047;-79
2023/05/29 08:52:19;;;;;;;6.95;1.70;;;14.40;99.90;;;;;;5068471;28;20442;-78
2023/05/29 08:54:46;;;;;;;14.50;1.70;;;14.50;99.90;;;;;;5067576;28;20044;-78
2023/05/29 08:57:12;;;;;;;12.20;1.70;;;14.50;99.90;;;;;;5050578;28;20041;-78
2023/05/29 08:59:42;;;;;;;12.45;2.97;;;14.40;99.90;;;;;;5050981;28;20043;-78
2023/05/29 09:02:08;;;;;;;8.05;1.63;;;14.40;99.90;;;;;;5067163;28;20036;-79
2023/05/29 09:04:33;;;;;;;8.95;1.60;;;14.50;99.90;;;;;;5068128;28;20058;-79
2023/05/29 09:07:00;;;;;;;7.93;1.65;;;14.50;99.90;;;;;;5049464;28;20445;-79
2023/05/29 09:09:29;;;;;;;9.98;1.95;;;14.60;99.90;;;;;;5067659;28;20051;-79
2023/05/29 09:11:56;;;;;;;12.20;2.28;;;14.60;99.90;;;;;;5066678;28;20079;-79
2023/05/29 09:14:39;;;;;;;9.38;1.83;;;14.70;99.90;;;;;;5050154;28;20048;-78
2023/05/29 09:17:06;;;;;;;;;;;14.80;99.90;;;;;;5051624;28;20047;-79
2023/05/29 09:19:40;;;;;;;8.93;2.15;;;14.90;99.90;;;;;;5065962;28;19927;-79
2023/05/29 09:22:07;;;;;;;19.58;2.38;;;15.00;99.90;;;;;;5067665;28;20410;-80
2023/05/29 09:24:34;;;;;;;9.27;1.65;;;15.10;99.90;;;;;;5066375;28;20369;-82
2023/05/29 09:27:00;;;;;;;13.13;2.55;;;15.20;99.90;;;;;;5050135;28;20048;-79
2023/05/29 09:29:30;;;;;;;9.95;1.98;;;15.30;99.90;;;;;;5067160;28;20044;-80
2023/05/29 09:31:56;;;;;;;13.48;2.30;;;15.40;99.90;;;;;;5066570;28;20395;-80
2023/05/29 09:34:26;;;;;;;12.70;2.03;;;15.40;99.90;;;;;;5067268;28;20044;-81
2023/05/29 09:36:53;;;;;;;7.97;1.92;;;15.40;99.90;;;;;;5065376;28;20127;-81
2023/05/29 09:39:18;;;;;;;13.70;2.05;;;15.50;99.90;;;;;;5050429;28;20048;-79
2023/05/29 09:41:48;;;;;;;18.42;2.13;;;15.60;99.90;;;;;;5065696;28;20114;-80
2023/05/29 09:44:15;;;;;;;10.15;1.60;;;15.70;99.90;;;;;;5066096;28;20044;-80
2023/05/29 09:46:46;;;;;;;13.38;1.90;;;15.80;99.90;;;;;;5066416;28;20055;-79
2023/05/29 09:49:13;;;;;;;9.88;1.65;;;15.80;99.90;;;;;;5065785;28;20119;-80
2023/05/29 09:51:39;;;;;;;11.02;1.73;;;16.00;99.90;;;;;;5067316;28;20079;-80
2023/05/29 09:54:15;;;;;;;8.00;1.80;;;15.90;99.90;;;;;;5048628;28;20071;-82
2023/05/29 09:56:42;;;;;;;9.15;2.08;;;15.80;99.90;;;;;;5063075;28;20062;-86
2023/05/29 09:59:13;;;;;;;11.93;2.20;;;15.80;99.90;;;;;;5045342;28;20048;-84
2023/05/29 10:01:46;;;;;;;10.25;2.33;;;15.90;99.90;;;;;;5046318;28;20369;-86
2023/05/29 10:04:11;;;;;;;10.57;1.75;;;16.20;99.90;;;;;;5046766;28;20052;-82
2023/05/29 10:06:46;;;;;;;11.68;1.50;;;16.30;99.90;;;;;;5046144;28;20037;-85
2023/05/29 10:09:14;;;;;;;9.00;1.48;;;16.40;99.90;;;;;;5064778;28;20047;-85
2023/05/29 10:11:43;;;;;;;11.35;2.15;;;15.20;99.90;;;;;;5061852;28;20131;-85
2023/05/29 10:14:14;;;;;;;18.50;2.40;;;16.30;99.90;;;;;;5046497;28;20067;-84
2023/05/29 10:16:43;;;;;;;9.55;2.53;;;16.20;99.90;;;;;;5046537;28;20040;-87
2023/05/29 10:19:30;;;;;;;10.40;1.83;;;16.30;99.90;;;;;;5029161;28;20076;-84
2023/05/29 10:21:57;;;;;;;8.00;1.80;;;16.20;99.90;;;;;;5047055;28;20517;-84
2023/05/29 10:24:24;;;;;;;9.93;1.67;;;16.20;99.90;;;;;;5045036;28;20129;-84
2023/05/29 10:26:51;;;;;;;15.63;1.95;;;16.10;99.90;;;;;;5045863;28;20051;-85
2023/05/29 10:29:32;;;;;;;14.48;1.20;;;16.00;99.90;;;;;;5061969;28;20133;-84
2023/05/29 10:32:23;;;;;;;9.73;1.98;;;15.90;99.90;;;;;;5062141;28;20048;-84
2023/05/29 10:35:08;;;;;;;15.02;1.88;;;15.90;99.90;;;;;;5046751;28;20041;-84
2023/05/29 10:38:00;;;;;;;11.73;1.70;;;15.90;99.90;;;;;;5044824;28;20048;-84
2023/05/29 10:40:27;;;;;;;11.27;2.85;;;16.10;99.90;;;;;;5045005;28;20055;-83
2023/05/29 10:42:57;;;;;;;14.38;3.33;;;16.20;99.90;;;;;;5046576;28;20397;-84
2023/05/29 10:45:32;;;;;;;11.73;1.80;;;16.30;99.90;;;;;;5045262;28;20165;-84
2023/05/29 10:48:28;;;;;;;15.23;3.00;;;16.40;99.90;;;;;;5063342;28;20431;-85
2023/05/29 10:50:55;;;;;;;9.40;1.52;;;16.40;99.90;;;;;;5036825;28;20056;-84
2023/05/29 10:53:30;;;;;;;11.65;1.73;;;16.40;99.90;;;;;;5061715;28;20081;-84
2023/05/29 10:55:56;;;;;;;9.93;2.05;;;16.50;99.90;;;;;;5045861;28;20040;-85
2023/05/29 10:58:25;;;;;;;11.80;1.80;;;16.60;99.90;;;;;;5045050;28;20182;-80
2023/05/29 11:00:56;;;;;;;8.25;1.92;;;16.50;99.90;;;;;;5063006;28;20435;-84
2023/05/29 11:03:31;;;;;;;9.07;1.73;;;16.40;99.90;;;;;;5044289;28;20101;-85
2023/05/29 11:06:17;;;;;;;13.95;2.00;;;16.20;99.90;;;;;;5062073;28;20257;-85
2023/05/29 11:08:48;;;;;;;9.93;1.55;;;16.10;99.90;;;;;;5046259;28;20052;-85
2023/05/29 11:11:15;;;;;;;7.10;1.73;;;16.00;99.90;;;;;;5046075;28;20135;-83
2023/05/29 11:13:44;;;;;;;9.77;1.50;;;16.00;99.90;;;;;;5046957;28;20083;-84
2023/05/29 11:16:18;;;;;;;7.35;1.80;;;16.10;99.90;;;;;;5014586;28;20040;-82
2023/05/29 11:18:48;;;;;;;10.50;1.73;;;16.10;99.90;;;;;;5063283;28;20063;-84
2023/05/29 11:21:29;;;;;;;8.73;1.80;;;16.20;99.90;;;;;;5046985;28;20080;-85
2023/05/29 11:24:07;;;;;;;13.07;1.80;;;16.20;99.90;;;;;;5064301;28;20365;-85
2023/05/29 11:26:36;;;;;;;11.05;1.80;;;16.20;99.90;;;;;;5063422;28;20052;-83
2023/05/29 11:29:06;;;;;;;7.78;1.17;;;16.20;99.90;;;;;;5063020;28;20446;-84
2023/05/29 11:31:34;;;;;;;11.77;1.92;;;16.40;99.90;;;;;;5030391;28;20048;-84
2023/05/29 11:34:04;;;;;;;12.02;1.65;;;16.50;99.90;;;;;;5062759;28;20056;-84
2023/05/29 11:36:32;;;;;;;9.98;1.83;;;16.60;99.90;;;;;;5065224;28;20047;-85
2023/05/29 11:38:59;;;;;;;11.15;1.58;;;16.40;99.90;;;;;;5047796;28;20044;-84
2023/05/29 11:41:26;;;;;;;16.67;2.08;;;16.50;99.90;;;;;;5046529;28;20047;-85
2023/05/29 11:44:02;;;;;;;10.25;1.45;;;16.60;99.90;;;;;;5047353;28;20377;-84
2023/05/29 11:46:32;;;;;;;4.22;1.20;;;16.60;99.90;;;;;;5048925;28;20048;-88
2023/05/29 11:48:58;;;;;;;10.15;1.65;;;16.60;99.90;;;;;;5052049;28;20104;-85
2023/05/29 11:51:25;;;;;;;11.25;1.58;;;16.90;99.90;;;;;;5050411;28;20158;-85
2023/05/29 11:53:57;;;;;;;13.25;2.15;;;16.90;99.90;;;;;;5050416;28;20044;-84
2023/05/29 11:56:25;;;;;;;11.60;1.80;;;17.00;99.90;;;;;;5076063;28;20083;-85
2023/05/29 11:58:51;;;;;;;6.93;1.48;;;17.20;99.90;;;;;;5053634;28;20048;-85
2023/05/29 12:01:19;;;;;;;9.88;1.83;;;16.90;99.90;;;;;;5053915;28;20044;-87
2023/05/29 12:03:44;;;;;;;12.93;1.73;;;16.90;99.90;;;;;;5054333;28;20365;-87
2023/05/29 12:06:11;;;;;;;11.27;2.17;;;16.80;99.90;;;;;;5038431;28;20451;-87
2023/05/29 12:08:40;;;;;;;14.57;2.00;;;16.80;99.90;;;;;;5037955;28;20040;-87
2023/05/29 12:11:06;;;;;;;9.85;1.50;;;16.80;99.90;;;;;;5054259;28;20136;-88
2023/05/29 12:13:31;;;;;;;17.58;2.17;;;16.80;99.90;;;;;;5070325;28;20082;-84
2023/05/29 12:15:59;;;;;;;10.20;1.70;;;16.80;99.90;;;;;;5037245;28;20445;-88
2023/05/29 12:18:26;;;;;;;14.50;2.58;;;16.90;99.90;;;;;;5054146;28;20083;-87
2023/05/29 12:21:01;;;;;;;7.00;1.85;;;17.00;99.90;;;;;;5037632;28;20407;-88
2023/05/29 12:23:29;;;;;;;8.07;1.40;;;17.20;99.90;;;;;;5071547;28;20050;-87
2023/05/29 12:25:55;;;;;;;19.35;1.73;;;17.30;99.90;;;;;;5054943;28;20044;-88
2023/05/29 12:28:21;;;;;;;12.80;1.90;;;17.30;99.90;;;;;;5070603;28;20077;-88
2023/05/29 12:30:49;;;;;;;9.70;1.52;;;17.20;99.90;;;;;;5037807;28;20047;-88
2023/05/29 12:33:29;;;;;;;8.02;1.77;;;17.00;99.90;;;;;;5037259;28;20503;-88
2023/05/29 12:36:02;;;;;;;7.68;1.77;;;17.00;99.90;;;;;;5054188;28;20044;-84
2023/05/29 12:38:27;;;;;;;7.32;1.60;;;17.00;99.90;;;;;;5070988;28;20085;-85
2023/05/29 12:40:54;;;;;;;7.82;1.23;;;17.20;99.90;;;;;;5070255;28;20138;-87
2023/05/29 12:43:20;;;;;;;16.30;1.98;;;17.40;99.90;;;;;;5037512;28;20052;-87
2023/05/29 12:45:46;;;;;;;6.70;1.60;;;17.60;99.90;;;;;;5020015;28;20040;-86
2023/05/29 12:48:11;;;;;;;6.82;1.40;;;16.40;99.90;;;;;;5037183;28;20043;-85